sensor_id;sensor_type;location;lat;lon;timestamp;P1;durP1;ratioP1;P2;durP2;ratioP2
19867;SDS011;10096;51.112;6.776;2022-07-22T00:00:05;6.82;;;5.95;;
19867;SDS011;10096;51.112;6.776;2022-07-22T00:02:33;10.20;;;5.55;;
19867;SDS011;10096;51.112;6.776;2022-07-22T00:05:00;9.02;;;5.63;;
19867;SDS011;10096;51.112;6.776;2022-07-22T00:07:27;8.93;;;5.45;;
19867;SDS011;10096;51.112;6.776;2022-07-22T00:09:54;9.75;;;6.10;;
19867;SDS011;10096;51.112;6.776;2022-07-22T00:12:23;10.68;;;5.85;;
19867;SDS011;10096;51.112;6.776;2022-07-22T00:14:50;7.72;;;5.78;;
19867;SDS011;10096;51.112;6.776;2022-07-22T00:17:17;7.03;;;5.63;;
19867;SDS011;10096;51.112;6.776;2022-07-22T00:19:44;8.93;;;5.50;;
19867;SDS011;10096;51.112;6.776;2022-07-22T00:22:11;7.03;;;5.95;;
19867;SDS011;10096;51.112;6.776;2022-07-22T00:24:38;8.52;;;5.90;;
19867;SDS011;10096;51.112;6.776;2022-07-22T00:27:05;8.32;;;5.57;;
19867;SDS011;10096;51.112;6.776;2022-07-22T00:29:33;8.23;;;5.70;;
19867;SDS011;10096;51.112;6.776;2022-07-22T00:32:00;9.35;;;6.45;;
19867;SDS011;10096;51.112;6.776;2022-07-22T00:34:27;9.60;;;6.63;;
19867;SDS011;10096;51.112;6.776;2022-07-22T00:36:55;6.82;;;5.78;;
19867;SDS011;10096;51.112;6.776;2022-07-22T00:39:21;8.18;;;5.43;;
19867;SDS011;10096;51.112;6.776;2022-07-22T00:41:48;8.50;;;5.82;;
19867;SDS011;10096;51.112;6.776;2022-07-22T00:44:15;10.02;;;6.00;;
19867;SDS011;10096;51.112;6.776;2022-07-22T00:46:44;9.77;;;5.72;;
19867;SDS011;10096;51.112;6.776;2022-07-22T00:49:11;9.18;;;6.00;;
19867;SDS011;10096;51.112;6.776;2022-07-22T00:51:37;9.10;;;6.40;;
19867;SDS011;10096;51.112;6.776;2022-07-22T00:54:05;11.10;;;6.25;;
19867;SDS011;10096;51.112;6.776;2022-07-22T00:56:32;9.02;;;6.28;;
19867;SDS011;10096;51.112;6.776;2022-07-22T00:59:00;11.63;;;6.65;;
19867;SDS011;10096;51.112;6.776;2022-07-22T01:01:30;9.18;;;6.45;;
19867;SDS011;10096;51.112;6.776;2022-07-22T01:03:58;8.50;;;6.13;;
19867;SDS011;10096;51.112;6.776;2022-07-22T01:06:25;13.18;;;6.68;;
19867;SDS011;10096;51.112;6.776;2022-07-22T01:08:52;10.20;;;6.75;;
19867;SDS011;10096;51.112;6.776;2022-07-22T01:11:21;11.43;;;6.97;;
19867;SDS011;10096;51.112;6.776;2022-07-22T01:13:47;9.25;;;6.63;;
19867;SDS011;10096;51.112;6.776;2022-07-22T01:16:15;13.02;;;6.38;;
19867;SDS011;10096;51.112;6.776;2022-07-22T01:18:43;10.18;;;6.43;;
19867;SDS011;10096;51.112;6.776;2022-07-22T01:21:12;7.95;;;5.50;;
19867;SDS011;10096;51.112;6.776;2022-07-22T01:23:40;12.73;;;6.50;;
19867;SDS011;10096;51.112;6.776;2022-07-22T01:26:08;9.65;;;6.60;;
19867;SDS011;10096;51.112;6.776;2022-07-22T01:28:35;11.43;;;6.28;;
19867;SDS011;10096;51.112;6.776;2022-07-22T01:31:02;8.73;;;6.22;;
19867;SDS011;10096;51.112;6.776;2022-07-22T01:33:29;8.88;;;6.70;;
19867;SDS011;10096;51.112;6.776;2022-07-22T01:35:57;10.65;;;6.40;;
19867;SDS011;10096;51.112;6.776;2022-07-22T01:38:25;10.35;;;6.28;;
19867;SDS011;10096;51.112;6.776;2022-07-22T01:40:52;8.13;;;6.20;;
19867;SDS011;10096;51.112;6.776;2022-07-22T01:43:19;8.45;;;6.20;;
19867;SDS011;10096;51.112;6.776;2022-07-22T01:45:46;7.45;;;6.15;;
19867;SDS011;10096;51.112;6.776;2022-07-22T01:48:15;10.20;;;6.10;;
19867;SDS011;10096;51.112;6.776;2022-07-22T01:50:42;12.73;;;6.72;;
19867;SDS011;10096;51.112;6.776;2022-07-22T01:53:10;7.90;;;6.47;;
19867;SDS011;10096;51.112;6.776;2022-07-22T01:55:38;12.13;;;6.97;;
19867;SDS011;10096;51.112;6.776;2022-07-22T01:58:05;8.85;;;6.88;;
19867;SDS011;10096;51.112;6.776;2022-07-22T02:00:32;10.77;;;7.85;;
19867;SDS011;10096;51.112;6.776;2022-07-22T02:03:00;9.13;;;6.47;;
19867;SDS011;10096;51.112;6.776;2022-07-22T02:05:27;8.50;;;6.18;;
19867;SDS011;10096;51.112;6.776;2022-07-22T02:07:58;8.63;;;6.45;;
19867;SDS011;10096;51.112;6.776;2022-07-22T02:10:25;9.73;;;6.20;;
19867;SDS011;10096;51.112;6.776;2022-07-22T02:12:54;13.82;;;6.65;;
19867;SDS011;10096;51.112;6.776;2022-07-22T02:15:21;10.48;;;7.22;;
19867;SDS011;10096;51.112;6.776;2022-07-22T02:17:48;9.80;;;7.25;;
19867;SDS011;10096;51.112;6.776;2022-07-22T02:20:15;11.55;;;8.07;;
19867;SDS011;10096;51.112;6.776;2022-07-22T02:22:42;10.07;;;6.88;;
19867;SDS011;10096;51.112;6.776;2022-07-22T02:25:09;8.77;;;7.13;;
19867;SDS011;10096;51.112;6.776;2022-07-22T02:27:36;12.55;;;8.00;;
19867;SDS011;10096;51.112;6.776;2022-07-22T02:30:06;9.45;;;7.43;;
19867;SDS011;10096;51.112;6.776;2022-07-22T02:32:34;12.02;;;7.13;;
19867;SDS011;10096;51.112;6.776;2022-07-22T02:35:01;9.55;;;7.20;;
19867;SDS011;10096;51.112;6.776;2022-07-22T02:37:28;11.27;;;7.47;;
19867;SDS011;10096;51.112;6.776;2022-07-22T02:39:55;10.07;;;7.40;;
19867;SDS011;10096;51.112;6.776;2022-07-22T02:42:22;9.35;;;7.13;;
19867;SDS011;10096;51.112;6.776;2022-07-22T02:44:49;9.45;;;7.07;;
19867;SDS011;10096;51.112;6.776;2022-07-22T02:47:17;10.90;;;6.97;;
19867;SDS011;10096;51.112;6.776;2022-07-22T02:49:44;10.98;;;6.32;;
19867;SDS011;10096;51.112;6.776;2022-07-22T02:52:11;11.35;;;7.35;;
19867;SDS011;10096;51.112;6.776;2022-07-22T02:54:38;13.10;;;8.02;;
19867;SDS011;10096;51.112;6.776;2022-07-22T02:57:05;10.27;;;7.68;;
19867;SDS011;10096;51.112;6.776;2022-07-22T02:59:33;9.95;;;7.53;;
19867;SDS011;10096;51.112;6.776;2022-07-22T03:02:00;11.65;;;8.05;;
19867;SDS011;10096;51.112;6.776;2022-07-22T03:04:28;10.40;;;7.88;;
19867;SDS011;10096;51.112;6.776;2022-07-22T03:06:55;7.95;;;6.90;;
19867;SDS011;10096;51.112;6.776;2022-07-22T03:09:22;8.77;;;7.55;;
19867;SDS011;10096;51.112;6.776;2022-07-22T03:11:49;8.77;;;7.47;;
19867;SDS011;10096;51.112;6.776;2022-07-22T03:14:15;9.45;;;7.03;;
19867;SDS011;10096;51.112;6.776;2022-07-22T03:16:43;7.88;;;7.00;;
19867;SDS011;10096;51.112;6.776;2022-07-22T03:19:10;9.68;;;6.78;;
19867;SDS011;10096;51.112;6.776;2022-07-22T03:21:39;11.05;;;7.18;;
19867;SDS011;10096;51.112;6.776;2022-07-22T03:24:06;7.97;;;7.07;;
19867;SDS011;10096;51.112;6.776;2022-07-22T03:26:33;7.38;;;5.80;;
19867;SDS011;10096;51.112;6.776;2022-07-22T03:29:00;9.65;;;6.40;;
19867;SDS011;10096;51.112;6.776;2022-07-22T03:31:26;9.98;;;7.32;;
19867;SDS011;10096;51.112;6.776;2022-07-22T03:33:54;11.13;;;6.68;;
19867;SDS011;10096;51.112;6.776;2022-07-22T03:36:20;8.35;;;6.72;;
19867;SDS011;10096;51.112;6.776;2022-07-22T03:38:49;8.20;;;6.05;;
19867;SDS011;10096;51.112;6.776;2022-07-22T03:41:16;8.60;;;6.30;;
19867;SDS011;10096;51.112;6.776;2022-07-22T03:43:43;9.80;;;5.80;;
19867;SDS011;10096;51.112;6.776;2022-07-22T03:46:10;9.63;;;6.53;;
19867;SDS011;10096;51.112;6.776;2022-07-22T03:48:37;9.90;;;6.40;;
19867;SDS011;10096;51.112;6.776;2022-07-22T03:51:04;8.98;;;6.63;;
19867;SDS011;10096;51.112;6.776;2022-07-22T03:53:31;10.30;;;6.65;;
19867;SDS011;10096;51.112;6.776;2022-07-22T03:56:00;9.98;;;6.55;;
19867;SDS011;10096;51.112;6.776;2022-07-22T03:58:27;11.68;;;7.07;;
19867;SDS011;10096;51.112;6.776;2022-07-22T04:00:54;9.85;;;7.07;;
19867;SDS011;10096;51.112;6.776;2022-07-22T04:03:21;9.73;;;6.47;;
19867;SDS011;10096;51.112;6.776;2022-07-22T04:05:48;9.43;;;6.72;;
19867;SDS011;10096;51.112;6.776;2022-07-22T04:08:17;10.73;;;6.55;;
19867;SDS011;10096;51.112;6.776;2022-07-22T04:10:44;9.32;;;6.70;;
19867;SDS011;10096;51.112;6.776;2022-07-22T04:13:13;8.30;;;6.88;;
19867;SDS011;10096;51.112;6.776;2022-07-22T04:15:40;10.93;;;6.80;;
19867;SDS011;10096;51.112;6.776;2022-07-22T04:18:07;7.55;;;6.85;;
19867;SDS011;10096;51.112;6.776;2022-07-22T04:20:34;8.00;;;6.90;;
19867;SDS011;10096;51.112;6.776;2022-07-22T04:23:00;10.80;;;6.85;;
19867;SDS011;10096;51.112;6.776;2022-07-22T04:25:27;9.35;;;7.10;;
19867;SDS011;10096;51.112;6.776;2022-07-22T04:27:54;6.70;;;5.72;;
19867;SDS011;10096;51.112;6.776;2022-07-22T04:30:22;7.30;;;5.90;;
19867;SDS011;10096;51.112;6.776;2022-07-22T04:32:49;7.22;;;5.25;;
19867;SDS011;10096;51.112;6.776;2022-07-22T04:35:16;6.35;;;5.63;;
19867;SDS011;10096;51.112;6.776;2022-07-22T04:37:43;6.05;;;5.18;;
19867;SDS011;10096;51.112;6.776;2022-07-22T04:40:10;7.63;;;5.43;;
19867;SDS011;10096;51.112;6.776;2022-07-22T04:42:38;8.13;;;5.60;;
19867;SDS011;10096;51.112;6.776;2022-07-22T04:45:05;5.50;;;4.75;;
19867;SDS011;10096;51.112;6.776;2022-07-22T04:47:33;9.75;;;5.45;;
19867;SDS011;10096;51.112;6.776;2022-07-22T04:50:00;6.35;;;4.60;;
19867;SDS011;10096;51.112;6.776;2022-07-22T04:52:27;7.55;;;5.68;;
19867;SDS011;10096;51.112;6.776;2022-07-22T04:54:54;7.57;;;4.60;;
19867;SDS011;10096;51.112;6.776;2022-07-22T04:57:23;6.20;;;5.60;;
19867;SDS011;10096;51.112;6.776;2022-07-22T04:59:51;9.85;;;5.75;;
19867;SDS011;10096;51.112;6.776;2022-07-22T05:02:18;10.75;;;5.70;;
19867;SDS011;10096;51.112;6.776;2022-07-22T05:04:46;10.73;;;6.30;;
19867;SDS011;10096;51.112;6.776;2022-07-22T05:07:13;9.98;;;6.38;;
19867;SDS011;10096;51.112;6.776;2022-07-22T05:09:40;7.63;;;6.88;;
19867;SDS011;10096;51.112;6.776;2022-07-22T05:12:07;11.73;;;8.38;;
19867;SDS011;10096;51.112;6.776;2022-07-22T05:14:34;11.50;;;8.32;;
19867;SDS011;10096;51.112;6.776;2022-07-22T05:17:01;15.05;;;8.60;;
19867;SDS011;10096;51.112;6.776;2022-07-22T05:19:28;11.88;;;8.57;;
19867;SDS011;10096;51.112;6.776;2022-07-22T05:21:56;13.18;;;9.13;;
19867;SDS011;10096;51.112;6.776;2022-07-22T05:24:23;10.82;;;7.57;;
19867;SDS011;10096;51.112;6.776;2022-07-22T05:26:50;14.30;;;9.00;;
19867;SDS011;10096;51.112;6.776;2022-07-22T05:29:17;10.68;;;9.25;;
19867;SDS011;10096;51.112;6.776;2022-07-22T05:31:44;11.93;;;9.40;;
19867;SDS011;10096;51.112;6.776;2022-07-22T05:34:11;9.57;;;7.97;;
19867;SDS011;10096;51.112;6.776;2022-07-22T05:36:38;11.32;;;7.32;;
19867;SDS011;10096;51.112;6.776;2022-07-22T05:39:06;10.15;;;7.88;;
19867;SDS011;10096;51.112;6.776;2022-07-22T05:41:33;8.88;;;7.53;;
19867;SDS011;10096;51.112;6.776;2022-07-22T05:44:00;8.88;;;7.60;;
19867;SDS011;10096;51.112;6.776;2022-07-22T05:46:27;9.07;;;6.70;;
19867;SDS011;10096;51.112;6.776;2022-07-22T05:48:54;8.27;;;6.32;;
19867;SDS011;10096;51.112;6.776;2022-07-22T05:51:21;10.95;;;6.97;;
19867;SDS011;10096;51.112;6.776;2022-07-22T05:53:49;9.13;;;6.10;;
19867;SDS011;10096;51.112;6.776;2022-07-22T05:56:17;7.55;;;5.72;;
19867;SDS011;10096;51.112;6.776;2022-07-22T05:58:44;7.28;;;5.43;;
19867;SDS011;10096;51.112;6.776;2022-07-22T06:01:11;8.80;;;4.72;;
19867;SDS011;10096;51.112;6.776;2022-07-22T06:03:38;8.50;;;5.15;;
19867;SDS011;10096;51.112;6.776;2022-07-22T06:06:05;6.93;;;5.32;;
19867;SDS011;10096;51.112;6.776;2022-07-22T06:08:33;7.38;;;4.72;;
19867;SDS011;10096;51.112;6.776;2022-07-22T06:11:00;6.20;;;4.88;;
19867;SDS011;10096;51.112;6.776;2022-07-22T06:13:30;6.82;;;5.53;;
19867;SDS011;10096;51.112;6.776;2022-07-22T06:15:57;7.68;;;4.45;;
19867;SDS011;10096;51.112;6.776;2022-07-22T06:18:24;6.25;;;4.38;;
19867;SDS011;10096;51.112;6.776;2022-07-22T06:20:52;9.70;;;4.43;;
19867;SDS011;10096;51.112;6.776;2022-07-22T06:23:19;10.50;;;5.10;;
19867;SDS011;10096;51.112;6.776;2022-07-22T06:25:46;7.70;;;4.80;;
19867;SDS011;10096;51.112;6.776;2022-07-22T06:28:13;11.60;;;4.47;;
19867;SDS011;10096;51.112;6.776;2022-07-22T06:30:41;7.03;;;4.45;;
19867;SDS011;10096;51.112;6.776;2022-07-22T06:33:10;9.07;;;4.85;;
19867;SDS011;10096;51.112;6.776;2022-07-22T06:35:38;5.38;;;4.38;;
19867;SDS011;10096;51.112;6.776;2022-07-22T06:38:05;9.50;;;4.43;;
19867;SDS011;10096;51.112;6.776;2022-07-22T06:40:32;12.45;;;5.30;;
19867;SDS011;10096;51.112;6.776;2022-07-22T06:42:59;6.75;;;4.70;;
19867;SDS011;10096;51.112;6.776;2022-07-22T06:45:26;7.43;;;4.55;;
19867;SDS011;10096;51.112;6.776;2022-07-22T06:47:55;6.53;;;4.20;;
19867;SDS011;10096;51.112;6.776;2022-07-22T06:50:22;5.50;;;4.70;;
19867;SDS011;10096;51.112;6.776;2022-07-22T06:52:50;7.10;;;5.15;;
19867;SDS011;10096;51.112;6.776;2022-07-22T06:55:18;8.45;;;4.82;;
19867;SDS011;10096;51.112;6.776;2022-07-22T06:57:45;7.28;;;4.13;;
19867;SDS011;10096;51.112;6.776;2022-07-22T07:00:12;9.18;;;4.90;;
19867;SDS011;10096;51.112;6.776;2022-07-22T07:02:40;6.90;;;4.70;;
19867;SDS011;10096;51.112;6.776;2022-07-22T07:05:09;6.28;;;5.43;;
19867;SDS011;10096;51.112;6.776;2022-07-22T07:07:36;6.80;;;4.70;;
19867;SDS011;10096;51.112;6.776;2022-07-22T07:10:03;7.97;;;4.90;;
19867;SDS011;10096;51.112;6.776;2022-07-22T07:12:31;6.97;;;5.25;;
19867;SDS011;10096;51.112;6.776;2022-07-22T07:14:58;6.55;;;5.32;;
19867;SDS011;10096;51.112;6.776;2022-07-22T07:17:25;6.45;;;4.40;;
19867;SDS011;10096;51.112;6.776;2022-07-22T07:19:52;8.10;;;5.35;;
19867;SDS011;10096;51.112;6.776;2022-07-22T07:22:20;9.23;;;5.20;;
19867;SDS011;10096;51.112;6.776;2022-07-22T07:24:47;9.30;;;4.60;;
19867;SDS011;10096;51.112;6.776;2022-07-22T07:27:14;8.60;;;5.22;;
19867;SDS011;10096;51.112;6.776;2022-07-22T07:29:41;6.13;;;4.93;;
19867;SDS011;10096;51.112;6.776;2022-07-22T07:32:08;8.43;;;4.60;;
19867;SDS011;10096;51.112;6.776;2022-07-22T07:34:35;7.65;;;5.47;;
19867;SDS011;10096;51.112;6.776;2022-07-22T07:37:02;7.45;;;5.35;;
19867;SDS011;10096;51.112;6.776;2022-07-22T07:39:30;9.63;;;4.90;;
19867;SDS011;10096;51.112;6.776;2022-07-22T07:41:57;8.30;;;4.97;;
19867;SDS011;10096;51.112;6.776;2022-07-22T07:44:24;6.45;;;4.60;;
19867;SDS011;10096;51.112;6.776;2022-07-22T07:46:53;6.85;;;4.63;;
19867;SDS011;10096;51.112;6.776;2022-07-22T07:49:20;9.10;;;4.88;;
19867;SDS011;10096;51.112;6.776;2022-07-22T07:51:49;5.20;;;4.70;;
19867;SDS011;10096;51.112;6.776;2022-07-22T07:54:17;7.95;;;5.82;;
19867;SDS011;10096;51.112;6.776;2022-07-22T07:56:45;7.72;;;5.43;;
19867;SDS011;10096;51.112;6.776;2022-07-22T07:59:13;7.78;;;5.63;;
19867;SDS011;10096;51.112;6.776;2022-07-22T08:01:41;6.65;;;5.25;;
19867;SDS011;10096;51.112;6.776;2022-07-22T08:04:08;6.97;;;5.78;;
19867;SDS011;10096;51.112;6.776;2022-07-22T08:06:35;6.22;;;5.55;;
19867;SDS011;10096;51.112;6.776;2022-07-22T08:09:03;7.05;;;5.25;;
19867;SDS011;10096;51.112;6.776;2022-07-22T08:11:30;8.00;;;5.25;;
19867;SDS011;10096;51.112;6.776;2022-07-22T08:13:58;7.22;;;5.80;;
19867;SDS011;10096;51.112;6.776;2022-07-22T08:16:25;8.60;;;5.55;;
19867;SDS011;10096;51.112;6.776;2022-07-22T08:18:52;8.80;;;5.60;;
19867;SDS011;10096;51.112;6.776;2022-07-22T08:21:19;7.13;;;5.30;;
19867;SDS011;10096;51.112;6.776;2022-07-22T08:23:48;8.02;;;5.80;;
19867;SDS011;10096;51.112;6.776;2022-07-22T08:26:15;6.95;;;5.47;;
19867;SDS011;10096;51.112;6.776;2022-07-22T08:28:44;9.25;;;5.50;;
19867;SDS011;10096;51.112;6.776;2022-07-22T08:31:13;8.80;;;7.07;;
19867;SDS011;10096;51.112;6.776;2022-07-22T08:33:40;9.98;;;6.43;;
19867;SDS011;10096;51.112;6.776;2022-07-22T08:36:07;10.02;;;6.47;;
19867;SDS011;10096;51.112;6.776;2022-07-22T08:38:37;6.88;;;6.18;;
19867;SDS011;10096;51.112;6.776;2022-07-22T08:41:06;9.30;;;6.07;;
19867;SDS011;10096;51.112;6.776;2022-07-22T08:43:34;8.35;;;5.93;;
19867;SDS011;10096;51.112;6.776;2022-07-22T08:46:04;7.90;;;6.35;;
19867;SDS011;10096;51.112;6.776;2022-07-22T08:48:33;9.48;;;6.13;;
19867;SDS011;10096;51.112;6.776;2022-07-22T08:51:02;9.93;;;7.18;;
19867;SDS011;10096;51.112;6.776;2022-07-22T08:53:29;12.25;;;6.72;;
19867;SDS011;10096;51.112;6.776;2022-07-22T08:55:56;7.35;;;6.50;;
19867;SDS011;10096;51.112;6.776;2022-07-22T08:58:24;9.68;;;7.43;;
19867;SDS011;10096;51.112;6.776;2022-07-22T09:01:03;10.50;;;7.68;;
19867;SDS011;10096;51.112;6.776;2022-07-22T09:03:30;9.45;;;7.35;;
19867;SDS011;10096;51.112;6.776;2022-07-22T09:05:59;7.75;;;6.68;;
19867;SDS011;10096;51.112;6.776;2022-07-22T09:08:26;10.40;;;7.85;;
19867;SDS011;10096;51.112;6.776;2022-07-22T09:10:53;8.27;;;7.50;;
19867;SDS011;10096;51.112;6.776;2022-07-22T09:13:20;10.73;;;7.93;;
19867;SDS011;10096;51.112;6.776;2022-07-22T09:15:51;11.55;;;8.57;;
19867;SDS011;10096;51.112;6.776;2022-07-22T09:18:19;10.05;;;8.35;;
19867;SDS011;10096;51.112;6.776;2022-07-22T09:20:48;7.90;;;7.10;;
19867;SDS011;10096;51.112;6.776;2022-07-22T09:23:23;10.93;;;8.13;;
19867;SDS011;10096;51.112;6.776;2022-07-22T09:25:50;10.05;;;8.48;;
19867;SDS011;10096;51.112;6.776;2022-07-22T09:28:17;11.50;;;8.20;;
19867;SDS011;10096;51.112;6.776;2022-07-22T09:30:47;9.50;;;8.25;;
19867;SDS011;10096;51.112;6.776;2022-07-22T09:33:15;11.38;;;7.57;;
19867;SDS011;10096;51.112;6.776;2022-07-22T09:35:43;11.48;;;8.05;;
19867;SDS011;10096;51.112;6.776;2022-07-22T09:38:14;10.65;;;7.93;;
19867;SDS011;10096;51.112;6.776;2022-07-22T09:40:42;10.85;;;8.30;;
19867;SDS011;10096;51.112;6.776;2022-07-22T09:43:11;10.70;;;8.07;;
19867;SDS011;10096;51.112;6.776;2022-07-22T09:45:44;11.57;;;8.15;;
19867;SDS011;10096;51.112;6.776;2022-07-22T09:48:14;10.10;;;9.13;;
19867;SDS011;10096;51.112;6.776;2022-07-22T09:50:43;10.57;;;8.43;;
19867;SDS011;10096;51.112;6.776;2022-07-22T09:53:12;11.98;;;9.40;;
19867;SDS011;10096;51.112;6.776;2022-07-22T09:55:39;11.27;;;9.88;;
19867;SDS011;10096;51.112;6.776;2022-07-22T09:58:06;10.20;;;8.73;;
19867;SDS011;10096;51.112;6.776;2022-07-22T10:00:34;11.60;;;9.60;;
19867;SDS011;10096;51.112;6.776;2022-07-22T10:03:03;10.63;;;9.23;;
19867;SDS011;10096;51.112;6.776;2022-07-22T10:05:32;10.23;;;9.18;;
19867;SDS011;10096;51.112;6.776;2022-07-22T10:08:01;11.93;;;9.18;;
19867;SDS011;10096;51.112;6.776;2022-07-22T10:10:32;11.68;;;8.95;;
19867;SDS011;10096;51.112;6.776;2022-07-22T10:13:00;11.40;;;8.98;;
19867;SDS011;10096;51.112;6.776;2022-07-22T10:15:29;10.77;;;8.57;;
19867;SDS011;10096;51.112;6.776;2022-07-22T10:17:59;9.00;;;8.00;;
19867;SDS011;10096;51.112;6.776;2022-07-22T10:20:29;10.85;;;8.90;;
19867;SDS011;10096;51.112;6.776;2022-07-22T10:22:57;11.60;;;10.23;;
19867;SDS011;10096;51.112;6.776;2022-07-22T10:25:25;9.25;;;7.97;;
19867;SDS011;10096;51.112;6.776;2022-07-22T10:27:56;11.98;;;8.82;;
19867;SDS011;10096;51.112;6.776;2022-07-22T10:30:25;9.75;;;8.45;;
19867;SDS011;10096;51.112;6.776;2022-07-22T10:33:04;10.13;;;8.60;;
19867;SDS011;10096;51.112;6.776;2022-07-22T10:35:36;10.75;;;9.63;;
19867;SDS011;10096;51.112;6.776;2022-07-22T10:38:05;13.63;;;11.25;;
19867;SDS011;10096;51.112;6.776;2022-07-22T10:40:50;12.27;;;11.00;;
19867;SDS011;10096;51.112;6.776;2022-07-22T10:43:21;10.48;;;9.45;;
19867;SDS011;10096;51.112;6.776;2022-07-22T10:45:50;13.35;;;9.85;;
19867;SDS011;10096;51.112;6.776;2022-07-22T10:48:20;10.75;;;9.32;;
19867;SDS011;10096;51.112;6.776;2022-07-22T10:51:04;13.43;;;12.07;;
19867;SDS011;10096;51.112;6.776;2022-07-22T10:53:41;12.95;;;11.45;;
19867;SDS011;10096;51.112;6.776;2022-07-22T10:56:18;14.82;;;12.95;;
19867;SDS011;10096;51.112;6.776;2022-07-22T10:58:52;14.32;;;12.82;;
19867;SDS011;10096;51.112;6.776;2022-07-22T11:01:21;13.95;;;12.52;;
19867;SDS011;10096;51.112;6.776;2022-07-22T11:03:51;16.00;;;14.15;;
19867;SDS011;10096;51.112;6.776;2022-07-22T11:06:20;15.60;;;13.80;;
19867;SDS011;10096;51.112;6.776;2022-07-22T11:08:50;14.80;;;13.27;;
19867;SDS011;10096;51.112;6.776;2022-07-22T11:11:18;15.95;;;14.38;;
19867;SDS011;10096;51.112;6.776;2022-07-22T11:13:58;15.10;;;13.57;;
19867;SDS011;10096;51.112;6.776;2022-07-22T11:16:26;21.23;;;16.65;;
19867;SDS011;10096;51.112;6.776;2022-07-22T11:18:55;15.27;;;13.63;;
19867;SDS011;10096;51.112;6.776;2022-07-22T11:21:25;15.98;;;14.48;;
19867;SDS011;10096;51.112;6.776;2022-07-22T11:23:54;15.77;;;14.27;;
19867;SDS011;10096;51.112;6.776;2022-07-22T11:26:24;17.10;;;15.43;;
19867;SDS011;10096;51.112;6.776;2022-07-22T11:28:59;16.73;;;15.05;;
19867;SDS011;10096;51.112;6.776;2022-07-22T11:31:26;16.63;;;15.13;;
19867;SDS011;10096;51.112;6.776;2022-07-22T11:34:03;15.95;;;14.45;;
19867;SDS011;10096;51.112;6.776;2022-07-22T11:36:33;16.48;;;14.98;;
19867;SDS011;10096;51.112;6.776;2022-07-22T11:39:00;16.30;;;14.70;;
19867;SDS011;10096;51.112;6.776;2022-07-22T11:41:28;16.85;;;15.35;;
19867;SDS011;10096;51.112;6.776;2022-07-22T11:43:56;17.42;;;15.68;;
19867;SDS011;10096;51.112;6.776;2022-07-22T11:46:25;16.45;;;14.82;;
19867;SDS011;10096;51.112;6.776;2022-07-22T11:48:54;17.63;;;15.93;;
19867;SDS011;10096;51.112;6.776;2022-07-22T11:51:27;16.83;;;15.20;;
19867;SDS011;10096;51.112;6.776;2022-07-22T11:53:55;16.85;;;15.30;;
19867;SDS011;10096;51.112;6.776;2022-07-22T11:56:23;17.65;;;15.95;;
19867;SDS011;10096;51.112;6.776;2022-07-22T11:58:51;17.65;;;14.70;;
19867;SDS011;10096;51.112;6.776;2022-07-22T12:01:22;16.15;;;14.57;;
19867;SDS011;10096;51.112;6.776;2022-07-22T12:03:51;16.70;;;15.00;;
19867;SDS011;10096;51.112;6.776;2022-07-22T12:06:20;16.60;;;15.00;;
19867;SDS011;10096;51.112;6.776;2022-07-22T12:08:49;17.52;;;15.68;;
19867;SDS011;10096;51.112;6.776;2022-07-22T12:11:18;17.48;;;15.65;;
19867;SDS011;10096;51.112;6.776;2022-07-22T12:13:49;18.02;;;16.20;;
19867;SDS011;10096;51.112;6.776;2022-07-22T12:16:24;17.70;;;15.90;;
19867;SDS011;10096;51.112;6.776;2022-07-22T12:18:53;18.42;;;15.48;;
19867;SDS011;10096;51.112;6.776;2022-07-22T12:21:23;18.05;;;16.15;;
19867;SDS011;10096;51.112;6.776;2022-07-22T12:23:52;17.02;;;15.27;;
19867;SDS011;10096;51.112;6.776;2022-07-22T12:29:22;17.65;;;15.85;;
19867;SDS011;10096;51.112;6.776;2022-07-22T12:31:54;18.70;;;15.80;;
19867;SDS011;10096;51.112;6.776;2022-07-22T12:34:29;18.98;;;16.67;;
19867;SDS011;10096;51.112;6.776;2022-07-22T12:36:58;17.35;;;15.43;;
19867;SDS011;10096;51.112;6.776;2022-07-22T12:39:27;19.40;;;16.27;;
19867;SDS011;10096;51.112;6.776;2022-07-22T12:41:54;19.48;;;16.52;;
19867;SDS011;10096;51.112;6.776;2022-07-22T12:44:23;17.35;;;14.57;;
19867;SDS011;10096;51.112;6.776;2022-07-22T12:46:51;17.73;;;15.65;;
19867;SDS011;10096;51.112;6.776;2022-07-22T12:49:21;19.83;;;16.50;;
19867;SDS011;10096;51.112;6.776;2022-07-22T12:52:08;16.13;;;14.45;;
19867;SDS011;10096;51.112;6.776;2022-07-22T12:54:37;17.60;;;15.13;;
19867;SDS011;10096;51.112;6.776;2022-07-22T12:57:05;16.33;;;14.68;;
19867;SDS011;10096;51.112;6.776;2022-07-22T12:59:34;15.80;;;14.20;;
19867;SDS011;10096;51.112;6.776;2022-07-22T13:02:03;15.93;;;14.18;;
19867;SDS011;10096;51.112;6.776;2022-07-22T13:04:30;13.73;;;12.30;;
19867;SDS011;10096;51.112;6.776;2022-07-22T13:06:57;17.35;;;13.85;;
19867;SDS011;10096;51.112;6.776;2022-07-22T13:09:24;17.42;;;14.55;;
19867;SDS011;10096;51.112;6.776;2022-07-22T13:11:51;17.00;;;15.20;;
19867;SDS011;10096;51.112;6.776;2022-07-22T13:14:18;16.67;;;15.02;;
19867;SDS011;10096;51.112;6.776;2022-07-22T13:16:45;17.77;;;15.93;;
19867;SDS011;10096;51.112;6.776;2022-07-22T13:19:13;16.73;;;15.02;;
19867;SDS011;10096;51.112;6.776;2022-07-22T13:21:40;16.55;;;14.45;;
19867;SDS011;10096;51.112;6.776;2022-07-22T13:24:09;17.58;;;15.73;;
19867;SDS011;10096;51.112;6.776;2022-07-22T13:26:38;17.63;;;15.93;;
19867;SDS011;10096;51.112;6.776;2022-07-22T13:29:05;19.83;;;15.82;;
19867;SDS011;10096;51.112;6.776;2022-07-22T13:31:32;16.92;;;15.07;;
19867;SDS011;10096;51.112;6.776;2022-07-22T13:33:59;18.83;;;16.35;;
19867;SDS011;10096;51.112;6.776;2022-07-22T13:36:27;17.90;;;16.10;;
19867;SDS011;10096;51.112;6.776;2022-07-22T13:38:57;17.83;;;15.90;;
19867;SDS011;10096;51.112;6.776;2022-07-22T13:41:24;18.75;;;16.88;;
19867;SDS011;10096;51.112;6.776;2022-07-22T13:43:51;19.50;;;16.48;;
19867;SDS011;10096;51.112;6.776;2022-07-22T13:46:18;17.52;;;15.73;;
19867;SDS011;10096;51.112;6.776;2022-07-22T13:48:45;18.33;;;16.33;;
19867;SDS011;10096;51.112;6.776;2022-07-22T13:51:12;17.50;;;15.38;;
19867;SDS011;10096;51.112;6.776;2022-07-22T13:53:42;17.45;;;14.15;;
19867;SDS011;10096;51.112;6.776;2022-07-22T13:56:09;17.65;;;15.77;;
19867;SDS011;10096;51.112;6.776;2022-07-22T13:58:37;16.88;;;15.18;;
19867;SDS011;10096;51.112;6.776;2022-07-22T14:01:06;17.02;;;15.32;;
19867;SDS011;10096;51.112;6.776;2022-07-22T14:03:33;18.52;;;16.52;;
19867;SDS011;10096;51.112;6.776;2022-07-22T14:06:00;15.57;;;13.90;;
19867;SDS011;10096;51.112;6.776;2022-07-22T14:08:28;16.05;;;14.35;;
19867;SDS011;10096;51.112;6.776;2022-07-22T14:10:56;17.90;;;16.00;;
19867;SDS011;10096;51.112;6.776;2022-07-22T14:13:24;18.02;;;16.13;;
19867;SDS011;10096;51.112;6.776;2022-07-22T14:15:52;18.13;;;15.77;;
19867;SDS011;10096;51.112;6.776;2022-07-22T14:18:19;18.35;;;15.93;;
19867;SDS011;10096;51.112;6.776;2022-07-22T14:20:47;18.05;;;16.15;;
19867;SDS011;10096;51.112;6.776;2022-07-22T14:23:14;19.40;;;17.40;;
19867;SDS011;10096;51.112;6.776;2022-07-22T14:25:45;16.05;;;14.48;;
19867;SDS011;10096;51.112;6.776;2022-07-22T14:28:14;15.98;;;14.38;;
19867;SDS011;10096;51.112;6.776;2022-07-22T14:30:41;18.27;;;15.93;;
19867;SDS011;10096;51.112;6.776;2022-07-22T14:33:08;24.60;;;17.48;;
19867;SDS011;10096;51.112;6.776;2022-07-22T14:35:35;17.02;;;15.40;;
19867;SDS011;10096;51.112;6.776;2022-07-22T14:38:01;16.50;;;14.40;;
19867;SDS011;10096;51.112;6.776;2022-07-22T14:40:28;17.15;;;15.32;;
19867;SDS011;10096;51.112;6.776;2022-07-22T14:42:55;13.25;;;11.65;;
19867;SDS011;10096;51.112;6.776;2022-07-22T14:45:24;13.10;;;11.65;;